Time;durP1;ratioP1;P1;durP2;ratioP2;P2;SDS_P1;SDS_P2;PMS_P1;PMS_P2;Temp;Humidity;BMP_temperature;BMP_pressure;BME280_temperature;BME280_humidity;BME280_pressure;Samples;Min_cycle;Max_cycle;Signal;HPM_P1;HPM_P2
2021/12/17 00:05:12;;;;;;;13.63;6.22;;;8.40;99.90;;;;;;5036097;28;20021;-50
2021/12/17 00:07:39;;;;;;;18.25;6.95;;;8.40;99.90;;;;;;5037383;28;20036;-50
2021/12/17 00:10:10;;;;;;;16.15;6.55;;;8.40;99.90;;;;;;5035531;28;20061;-50
2021/12/17 00:12:36;;;;;;;17.15;7.10;;;8.40;99.90;;;;;;5042813;28;20021;-50
2021/12/17 00:15:02;;;;;;;18.50;7.03;;;8.40;99.90;;;;;;5042753;28;20037;-50
2021/12/17 00:17:33;;;;;;;18.13;7.07;;;8.40;99.90;;;;;;5040554;28;20116;-50
2021/12/17 00:49:59;;;;;;;13.05;5.78;;;8.40;99.90;;;;;;5040364;28;20033;-51
2021/12/17 00:52:28;;;;;;;24.00;6.38;;;8.40;99.90;;;;;;5040164;28;20368;-50
2021/12/17 00:54:54;;;;;;;15.10;6.00;;;8.40;99.90;;;;;;5035536;28;20115;-50
2021/12/17 00:57:24;;;;;;;14.63;6.90;;;8.40;99.90;;;;;;5038752;28;20017;-50
2021/12/17 00:59:53;;;;;;;15.75;6.18;;;8.40;99.90;;;;;;5034122;28;20038;-50
2021/12/17 01:02:24;;;;;;;16.13;7.00;;;8.40;99.90;;;;;;5042836;28;20086;-50
2021/12/17 01:04:52;;;;;;;;;;;8.40;99.90;;;;;;5043329;28;20040;-50
2021/12/17 01:07:20;;;;;;;19.55;5.68;;;8.40;99.90;;;;;;5039529;28;20267;-50
2021/12/17 01:09:46;;;;;;;14.18;6.47;;;8.40;99.90;;;;;;5027652;28;20033;-49
2021/12/17 01:12:13;;;;;;;13.48;6.03;;;8.40;99.90;;;;;;5041161;28;20147;-50
2021/12/17 01:14:40;;;;;;;10.95;5.32;;;8.40;99.90;;;;;;5039381;28;20041;-50
2021/12/17 01:17:08;;;;;;;19.33;7.30;;;8.40;99.90;;;;;;5041301;28;20021;-50
2021/12/17 01:25:08;;;;;;;20.00;7.88;;;8.40;99.90;;;;;;5037908;28;20044;-50
2021/12/17 01:35:54;;;;;;;15.52;6.53;;;8.40;99.90;;;;;;5035712;28;20378;-50
2021/12/17 01:43:19;;;;;;;15.20;6.22;;;8.40;99.90;;;;;;5042535;28;20031;-50
2021/12/17 01:45:45;;;;;;;15.05;6.55;;;8.40;99.90;;;;;;5039189;28;20029;-50
2021/12/17 01:48:15;;;;;;;16.40;6.40;;;8.40;99.90;;;;;;5040186;28;20025;-50
2021/12/17 02:01:29;;;;;;;14.00;6.13;;;8.40;99.90;;;;;;5027304;28;20120;-50
2021/12/17 02:03:56;;;;;;;14.77;4.97;;;8.40;99.90;;;;;;5039374;28;20366;-50
2021/12/17 02:06:23;;;;;;;13.73;6.32;;;8.40;99.90;;;;;;5040564;28;20029;-50
2021/12/17 02:08:50;;;;;;;16.75;6.85;;;8.40;99.90;;;;;;5041298;28;20061;-50
2021/12/17 02:19:44;;;;;;;18.35;6.22;;;8.40;99.90;;;;;;5031620;28;20029;-50
2021/12/17 02:30:58;;;;;;;16.73;6.75;;;8.40;99.90;;;;;;5042283;28;20086;-50
2021/12/17 02:33:11;;;;;;;18.08;7.53;;;8.40;99.90;;;;;;5035481;28;20044;-50
2021/12/17 02:35:43;;;;;;;16.23;7.07;;;8.40;99.90;;;;;;5041435;28;20347;-50
2021/12/17 02:38:11;;;;;;;16.17;6.88;;;8.40;99.90;;;;;;5040076;28;20026;-50
2021/12/17 02:45:48;;;;;;;17.98;7.03;;;8.40;99.90;;;;;;5043426;28;20101;-50
2021/12/17 02:48:19;;;;;;;12.10;5.63;;;8.40;99.90;;;;;;5045686;28;20029;-50
2021/12/17 02:50:57;;;;;;;18.48;5.63;;;8.40;99.90;;;;;;5039518;28;20025;-50
2021/12/17 02:53:26;;;;;;;16.05;5.55;;;8.40;99.90;;;;;;5042183;28;20087;-50
2021/12/17 02:56:05;;;;;;;14.32;6.45;;;8.40;99.90;;;;;;5032546;28;20083;-49
2021/12/17 02:58:33;;;;;;;14.13;7.18;;;8.40;99.90;;;;;;5040492;28;20026;-49
2021/12/17 03:01:01;;;;;;;15.65;7.55;;;8.40;99.90;;;;;;5044850;28;20036;-49
2021/12/17 03:03:30;;;;;;;18.58;7.00;;;8.40;99.90;;;;;;5045110;28;20033;-50
2021/12/17 03:05:56;;;;;;;14.60;6.78;;;8.40;99.90;;;;;;5037168;28;20029;-50
2021/12/17 03:08:22;;;;;;;16.73;7.15;;;8.40;99.90;;;;;;5045776;28;20029;-50
2021/12/17 03:10:49;;;;;;;13.50;6.45;;;8.40;99.90;;;;;;5039386;28;20033;-50
2021/12/17 03:13:16;;;;;;;28.02;9.27;;;8.40;99.90;;;;;;5028502;28;20028;-50
2021/12/17 03:16:04;;;;;;;24.25;9.30;;;8.40;99.90;;;;;;5038378;28;20041;-50
2021/12/17 03:24:19;;;;;;;19.20;7.32;;;8.40;99.90;;;;;;5042080;28;20119;-50
2021/12/17 03:26:45;;;;;;;28.15;10.50;;;8.40;99.90;;;;;;5037730;28;20041;-50
2021/12/17 03:29:11;;;;;;;22.98;9.30;;;8.40;99.90;;;;;;5042389;28;20469;-50
2021/12/17 03:31:38;;;;;;;33.97;12.13;;;8.40;99.90;;;;;;5039218;28;20458;-50
2021/12/17 03:34:18;;;;;;;31.10;10.68;;;8.40;99.90;;;;;;5040361;28;20481;-50
2021/12/17 03:36:48;;;;;;;36.08;11.48;;;8.40;99.90;;;;;;5040478;28;20480;-50
2021/12/17 03:39:14;;;;;;;32.80;11.45;;;8.40;99.90;;;;;;5035230;28;20285;-50
2021/12/17 03:41:47;;;;;;;28.27;9.52;;;8.40;99.90;;;;;;5041137;28;20029;-50
2021/12/17 03:44:12;;;;;;;30.13;9.35;;;8.40;99.90;;;;;;5040798;28;20040;-50
2021/12/17 03:46:38;;;;;;;29.05;9.18;;;8.40;99.90;;;;;;5031051;28;20343;-50
2021/12/17 03:49:04;;;;;;;31.17;9.55;;;8.40;99.90;;;;;;5039312;28;20366;-50
2021/12/17 03:51:30;;;;;;;32.95;10.93;;;8.40;99.90;;;;;;5036147;28;20048;-50
2021/12/17 03:53:59;;;;;;;30.90;9.52;;;8.40;99.90;;;;;;5038049;28;20025;-50
2021/12/17 03:56:26;;;;;;;35.42;11.35;;;8.40;99.90;;;;;;5034792;28;20486;-49
2021/12/17 03:58:54;;;;;;;33.70;10.68;;;8.40;99.90;;;;;;5042699;28;20111;-50
2021/12/17 04:01:20;;;;;;;38.35;10.63;;;8.40;99.90;;;;;;5043031;28;20044;-50
2021/12/17 04:03:46;;;;;;;30.58;10.20;;;8.40;99.90;;;;;;5044410;28;20095;-49
2021/12/17 04:06:12;;;;;;;29.63;10.40;;;8.40;99.90;;;;;;5039727;28;20439;-50
2021/12/17 04:08:38;;;;;;;31.23;9.23;;;8.40;99.90;;;;;;5041512;28;20453;-50
2021/12/17 04:11:06;;;;;;;33.50;9.35;;;8.40;99.90;;;;;;5044195;28;20267;-50
2021/12/17 04:13:36;;;;;;;33.55;10.18;;;8.40;99.90;;;;;;5037978;28;20043;-50
2021/12/17 04:16:06;;;;;;;26.10;9.77;;;8.40;99.90;;;;;;5043230;28;20029;-50
2021/12/17 04:18:34;;;;;;;27.55;9.10;;;8.40;99.90;;;;;;5036652;28;20037;-50
2021/12/17 04:21:00;;;;;;;24.75;8.95;;;8.40;99.90;;;;;;5037225;28;20031;-50
2021/12/17 04:23:26;;;;;;;20.70;9.15;;;8.40;99.90;;;;;;5043218;28;20502;-50
2021/12/17 04:25:52;;;;;;;26.80;9.00;;;8.40;99.90;;;;;;5041396;28;20113;-51
2021/12/17 04:28:19;;;;;;;28.08;10.32;;;8.40;99.90;;;;;;5033108;28;20032;-50
2021/12/17 04:30:46;;;;;;;25.85;8.45;;;8.40;99.90;;;;;;5042467;28;20028;-50
2021/12/17 04:33:13;;;;;;;29.55;8.88;;;8.40;99.90;;;;;;5043662;28;20121;-50
2021/12/17 04:35:39;;;;;;;28.55;10.52;;;8.40;99.90;;;;;;5039704;28;20042;-51
2021/12/17 04:38:07;;;;;;;28.58;9.60;;;8.40;99.90;;;;;;5036349;28;20032;-50
2021/12/17 04:40:35;;;;;;;29.73;9.55;;;8.40;99.90;;;;;;5038992;28;20109;-51
2021/12/17 04:43:13;;;;;;;23.85;8.43;;;8.40;99.90;;;;;;5035076;28;20056;-50
2021/12/17 04:45:44;;;;;;;27.20;9.07;;;8.40;99.90;;;;;;5043187;28;20202;-50
2021/12/17 04:59:08;;;;;;;21.73;8.00;;;8.40;99.90;;;;;;5037017;28;20406;-50
2021/12/17 05:01:35;;;;;;;27.27;7.60;;;8.40;99.90;;;;;;5042170;28;20029;-50
2021/12/17 05:04:01;;;;;;;22.70;7.05;;;8.40;99.90;;;;;;5042918;28;20465;-51
2021/12/17 05:06:29;;;;;;;27.02;8.98;;;8.40;99.90;;;;;;5039422;28;20037;-50
2021/12/17 05:09:01;;;;;;;26.17;9.13;;;8.40;99.90;;;;;;5034334;28;20041;-51
2021/12/17 05:18:13;;;;;;;28.10;9.60;;;8.40;99.90;;;;;;5041185;28;20072;-50
2021/12/17 05:19:48;;;;;;;22.52;8.30;;;8.40;99.90;;;;;;5037539;28;20094;-51
2021/12/17 05:22:14;;;;;;;34.33;9.50;;;8.50;99.90;;;;;;5036331;28;20033;-50
2021/12/17 05:24:41;;;;;;;27.45;9.35;;;8.40;99.90;;;;;;5040717;28;20025;-50
2021/12/17 05:27:06;;;;;;;39.10;10.95;;;8.40;99.90;;;;;;5038621;28;20037;-50
2021/12/17 05:29:32;;;;;;;36.15;10.05;;;8.40;99.90;;;;;;5037423;28;20026;-50
2021/12/17 05:31:57;;;;;;;33.22;9.65;;;8.50;99.90;;;;;;5042088;28;20025;-50
2021/12/17 05:34:23;;;;;;;32.75;9.93;;;8.50;99.90;;;;;;5040159;28;20021;-51
2021/12/17 05:36:49;;;;;;;22.00;8.68;;;8.40;99.90;;;;;;5042059;28;20053;-50
2021/12/17 05:39:15;;;;;;;29.83;9.15;;;8.40;99.90;;;;;;5039587;28;20028;-50
2021/12/17 05:41:40;;;;;;;19.40;6.70;;;8.40;99.90;;;;;;5037568;28;20040;-50
2021/12/17 05:44:06;;;;;;;15.18;6.93;;;8.50;99.90;;;;;;5038933;28;20409;-50
2021/12/17 05:46:48;;;;;;;19.13;7.25;;;8.40;99.90;;;;;;5039782;28;20461;-50
2021/12/17 05:49:14;;;;;;;18.25;7.78;;;8.40;99.90;;;;;;5039121;28;20033;-50
2021/12/17 05:51:40;;;;;;;21.70;8.25;;;8.40;99.90;;;;;;5040224;28;20051;-50
2021/12/17 05:54:05;;;;;;;24.55;9.55;;;8.40;99.90;;;;;;5040324;28;20025;-50
2021/12/17 05:56:31;;;;;;;20.20;7.00;;;8.50;99.90;;;;;;5039448;28;20033;-50
2021/12/17 05:58:56;;;;;;;18.45;6.90;;;8.50;99.90;;;;;;5036471;28;20071;-50
2021/12/17 06:01:22;;;;;;;13.90;6.40;;;8.40;99.90;;;;;;5034941;28;20113;-50
2021/12/17 06:03:48;;;;;;;15.82;6.55;;;8.40;99.90;;;;;;5042388;28;20029;-49
2021/12/17 06:06:35;;;;;;;19.35;7.35;;;8.40;99.90;;;;;;5038358;28;20065;-50
2021/12/17 06:09:05;;;;;;;20.48;7.10;;;8.40;99.90;;;;;;5025019;28;20060;-50
2021/12/17 06:11:31;;;;;;;17.50;6.72;;;8.50;99.90;;;;;;5042049;28;20037;-50
2021/12/17 06:13:56;;;;;;;18.45;6.80;;;8.50;99.90;;;;;;5033425;28;20041;-50
2021/12/17 06:16:22;;;;;;;15.43;5.82;;;8.40;99.90;;;;;;5040972;28;20039;-50
2021/12/17 06:18:47;;;;;;;21.52;6.28;;;8.40;99.90;;;;;;5038940;28;20025;-49
2021/12/17 06:21:14;;;;;;;12.43;5.25;;;8.50;99.90;;;;;;5040480;28;20029;-50
2021/12/17 06:23:40;;;;;;;20.33;5.93;;;8.40;99.90;;;;;;5029250;28;20025;-50
2021/12/17 06:26:06;;;;;;;15.38;5.90;;;8.40;99.90;;;;;;5027817;28;20029;-50
2021/12/17 06:28:32;;;;;;;13.07;4.95;;;8.40;99.90;;;;;;5028448;28;20105;-50
2021/12/17 06:30:57;;;;;;;13.32;6.47;;;8.40;99.90;;;;;;5028498;28;20367;-50
2021/12/17 06:33:23;;;;;;;11.63;4.93;;;8.40;99.90;;;;;;5028992;28;20167;-50
2021/12/17 06:35:48;;;;;;;10.57;4.70;;;8.40;99.90;;;;;;5037403;28;20036;-50
2021/12/17 06:38:14;;;;;;;9.93;4.32;;;8.40;99.90;;;;;;5039522;28;20025;-49
2021/12/17 06:40:40;;;;;;;12.43;4.82;;;8.40;99.90;;;;;;5037709;28;20029;-50
2021/12/17 06:43:06;;;;;;;10.18;4.70;;;8.40;99.90;;;;;;5032790;28;20030;-50
2021/12/17 06:45:43;;;;;;;13.82;5.03;;;8.40;99.90;;;;;;5030443;28;20060;-50
2021/12/17 06:48:10;;;;;;;10.98;5.50;;;8.40;99.90;;;;;;5026999;28;20049;-49
2021/12/17 06:59:38;;;;;;;9.48;4.32;;;8.40;99.90;;;;;;5026484;28;20422;-49
2021/12/17 07:17:42;;;;;;;8.35;3.55;;;8.40;99.90;;;;;;5028003;28;20032;-49
2021/12/17 07:23:01;;;;;;;7.20;4.13;;;8.40;99.90;;;;;;5028704;28;20101;-49
2021/12/17 07:28:32;;;;;;;7.10;3.67;;;8.40;99.90;;;;;;5027159;28;20113;-49
2021/12/17 07:33:44;;;;;;;7.97;3.50;;;8.40;99.90;;;;;;5034865;28;20314;-50
2021/12/17 07:36:13;;;;;;;9.93;4.28;;;8.40;99.90;;;;;;5039032;28;20048;-49
2021/12/17 07:38:47;;;;;;;7.47;4.00;;;8.40;99.90;;;;;;5044219;28;20083;-49
2021/12/17 07:41:13;;;;;;;10.90;4.57;;;8.50;99.90;;;;;;5040784;28;20470;-49
2021/12/17 07:43:40;;;;;;;8.25;3.88;;;8.40;99.90;;;;;;5033785;28;20062;-49
2021/12/17 07:46:09;;;;;;;11.27;5.03;;;8.40;99.90;;;;;;5038279;28;20365;-49
2021/12/17 07:48:35;;;;;;;8.80;3.67;;;8.40;99.90;;;;;;5044733;28;20048;-49
2021/12/17 07:51:04;;;;;;;13.43;3.80;;;8.40;99.90;;;;;;5038686;28;20025;-49
2021/12/17 07:53:34;;;;;;;7.78;3.80;;;8.40;99.90;;;;;;5044275;28;20032;-49
2021/12/17 07:56:02;;;;;;;7.70;3.70;;;8.50;99.90;;;;;;5036316;28;20053;-49
2021/12/17 07:58:29;;;;;;;8.13;4.32;;;8.50;99.90;;;;;;5034894;28;20045;-49
2021/12/17 08:00:55;;;;;;;9.35;4.50;;;8.50;99.90;;;;;;5043315;28;20435;-49
2021/12/17 08:03:22;;;;;;;9.38;4.97;;;8.50;99.90;;;;;;5037749;28;20124;-49
2021/12/17 08:05:48;;;;;;;11.70;4.65;;;8.50;99.90;;;;;;5041122;28;20546;-50
2021/12/17 08:08:13;;;;;;;9.40;4.75;;;8.40;99.90;;;;;;5037135;28;20036;-49
2021/12/17 08:10:39;;;;;;;10.27;4.22;;;8.40;99.90;;;;;;5029090;28;20026;-49
2021/12/17 08:13:07;;;;;;;9.88;4.32;;;8.50;99.90;;;;;;5041764;28;20113;-49
2021/12/17 08:15:40;;;;;;;8.30;3.38;;;8.40;99.90;;;;;;5037194;28;20460;-49
2021/12/17 08:18:31;;;;;;;8.95;4.35;;;8.40;99.90;;;;;;5044219;28;20100;-49
2021/12/17 08:26:16;;;;;;;8.60;4.10;;;8.40;99.90;;;;;;5040115;28;20021;-49
2021/12/17 08:29:12;;;;;;;8.05;3.70;;;8.40;99.90;;;;;;5033667;28;20447;-49
2021/12/17 08:31:38;;;;;;;5.10;3.45;;;8.40;99.90;;;;;;5036647;28;20122;-49
2021/12/17 08:34:05;;;;;;;10.23;3.55;;;8.40;99.90;;;;;;5042185;28;20057;-49
2021/12/17 08:36:31;;;;;;;5.65;3.00;;;8.40;99.90;;;;;;5033988;28;20034;-49
2021/12/17 08:38:58;;;;;;;9.93;4.57;;;8.50;99.90;;;;;;5042850;28;20139;-49
2021/12/17 08:41:24;;;;;;;8.50;4.10;;;8.50;99.90;;;;;;5039860;28;20029;-50
2021/12/17 08:43:49;;;;;;;7.55;4.07;;;8.50;99.90;;;;;;5030322;28;20026;-49
2021/12/17 08:46:15;;;;;;;8.25;3.97;;;8.50;99.90;;;;;;5040117;28;20033;-49
2021/12/17 08:48:41;;;;;;;8.40;3.88;;;8.50;99.90;;;;;;5040831;28;20036;-49
2021/12/17 08:51:09;;;;;;;7.88;3.92;;;8.50;99.90;;;;;;5040937;28;20028;-49
2021/12/17 08:53:36;;;;;;;9.43;3.70;;;8.50;99.90;;;;;;5037444;28;20517;-49
2021/12/17 08:56:05;;;;;;;8.00;3.95;;;8.50;99.90;;;;;;5037725;28;20037;-49
2021/12/17 08:58:33;;;;;;;8.30;4.20;;;8.50;99.90;;;;;;5039761;28;20275;-49
2021/12/17 09:01:02;;;;;;;8.63;4.38;;;8.50;99.90;;;;;;5036475;28;20421;-49
2021/12/17 09:03:28;;;;;;;7.07;3.25;;;8.50;99.90;;;;;;5037949;28;20029;-49
2021/12/17 09:05:54;;;;;;;9.05;4.20;;;8.50;99.90;;;;;;5037411;28;20429;-49
2021/12/17 09:08:21;;;;;;;7.40;4.03;;;8.50;99.90;;;;;;5040929;28;20050;-49
2021/12/17 09:10:48;;;;;;;11.43;4.05;;;8.50;99.90;;;;;;5043050;28;20032;-49
2021/12/17 09:13:14;;;;;;;7.57;3.45;;;8.50;99.90;;;;;;5036989;28;20543;-50
2021/12/17 09:15:40;;;;;;;5.38;3.20;;;8.50;99.90;;;;;;5023631;28;20046;-49
2021/12/17 09:18:06;;;;;;;8.65;3.53;;;8.50;99.90;;;;;;5041576;28;20025;-49
2021/12/17 09:20:32;;;;;;;7.07;3.95;;;8.50;99.90;;;;;;5038715;28;20029;-49
2021/12/17 09:22:57;;;;;;;10.38;4.28;;;8.50;99.90;;;;;;5034216;28;20320;-51
2021/12/17 09:25:23;;;;;;;7.93;3.58;;;8.50;99.90;;;;;;5035428;28;20443;-50
2021/12/17 09:27:49;;;;;;;6.25;3.65;;;8.50;99.90;;;;;;5039933;28;20021;-50
2021/12/17 09:30:16;;;;;;;4.68;2.95;;;8.50;99.90;;;;;;5035592;28;20033;-49
2021/12/17 09:32:43;;;;;;;5.63;3.20;;;8.50;99.90;;;;;;5033952;28;20074;-49
2021/12/17 09:35:10;;;;;;;5.18;3.22;;;8.50;99.90;;;;;;5042223;28;20033;-49
2021/12/17 09:37:36;;;;;;;9.98;3.97;;;8.50;99.90;;;;;;5040642;28;20022;-49
2021/12/17 09:40:06;;;;;;;8.25;3.50;;;8.50;99.90;;;;;;5041594;28;20036;-50
2021/12/17 09:42:32;;;;;;;6.75;3.38;;;8.50;99.90;;;;;;5037969;28;20037;-50
2021/12/17 09:44:58;;;;;;;6.50;3.47;;;8.50;99.90;;;;;;5036823;28;20029;-49
2021/12/17 09:47:24;;;;;;;7.28;3.08;;;8.50;99.90;;;;;;5038751;28;20059;-50
2021/12/17 09:49:55;;;;;;;7.47;3.35;;;8.50;99.90;;;;;;5039127;28;20079;-49
2021/12/17 09:52:20;;;;;;;9.02;3.53;;;8.50;99.90;;;;;;5038292;28;20040;-49
2021/12/17 09:54:47;;;;;;;7.53;3.67;;;8.50;99.90;;;;;;5037901;28;20037;-49
2021/12/17 09:57:13;;;;;;;9.85;3.70;;;8.60;99.90;;;;;;5040859;28;20092;-49
2021/12/17 09:59:39;;;;;;;7.25;3.85;;;8.50;99.90;;;;;;5035991;28;20167;-50
2021/12/17 10:02:06;;;;;;;5.90;3.30;;;8.60;99.90;;;;;;5036521;28;20055;-50
2021/12/17 10:04:31;;;;;;;6.32;3.80;;;8.50;99.90;;;;;;5026406;28;20473;-49
2021/12/17 10:07:20;;;;;;;8.50;4.05;;;8.50;99.90;;;;;;5041272;28;20461;-49
2021/12/17 10:10:00;;;;;;;7.68;4.25;;;8.50;99.90;;;;;;5035218;28;20078;-49
2021/12/17 10:12:37;;;;;;;9.52;4.00;;;8.60;99.90;;;;;;5039553;28;20041;-49
2021/12/17 10:15:05;;;;;;;10.80;4.13;;;8.50;99.90;;;;;;5030226;28;20084;-49
2021/12/17 10:17:31;;;;;;;11.98;4.53;;;8.60;99.90;;;;;;5041314;28;20359;-50
2021/12/17 10:19:57;;;;;;;11.70;5.07;;;8.60;99.90;;;;;;5040471;28;20363;-50
2021/12/17 10:22:25;;;;;;;8.82;4.47;;;8.60;99.90;;;;;;5039757;28;20025;-50
2021/12/17 10:25:02;;;;;;;7.55;3.88;;;8.60;99.90;;;;;;5041121;28;20037;-49
2021/12/17 10:27:31;;;;;;;6.70;3.78;;;8.60;99.90;;;;;;5033414;28;20026;-50
2021/12/17 10:30:07;;;;;;;7.35;3.67;;;8.60;99.90;;;;;;5026369;28;20029;-49
2021/12/17 10:32:33;;;;;;;8.52;4.38;;;8.70;99.90;;;;;;5027620;28;20030;-49
2021/12/17 10:35:09;;;;;;;10.38;4.55;;;8.70;99.90;;;;;;5034255;28;20045;-49
2021/12/17 10:37:44;;;;;;;10.43;4.28;;;8.70;99.90;;;;;;5037485;28;20032;-50
2021/12/17 10:40:27;;;;;;;7.10;3.28;;;8.70;99.90;;;;;;5031533;28;20477;-49
2021/12/17 10:43:14;;;;;;;9.20;4.47;;;8.80;99.90;;;;;;5041653;28;20454;-49
2021/12/17 10:45:45;;;;;;;13.20;4.20;;;8.80;99.90;;;;;;5032401;28;20079;-50
2021/12/17 10:50:52;;;;;;;8.40;3.67;;;8.80;99.90;;;;;;5028765;28;20572;-49
2021/12/17 10:53:25;;;;;;;13.75;4.82;;;8.80;99.90;;;;;;5032811;28;20499;-49
2021/12/17 10:55:52;;;;;;;12.23;4.32;;;8.90;99.90;;;;;;5032878;28;20075;-49
2021/12/17 10:58:18;;;;;;;10.88;4.10;;;8.90;99.90;;;;;;5030690;28;20538;-50
2021/12/17 11:00:59;;;;;;;9.18;4.00;;;8.90;99.90;;;;;;5034572;28;20104;-49
2021/12/17 11:03:25;;;;;;;8.65;4.32;;;8.90;99.90;;;;;;5021314;28;20049;-49
2021/12/17 11:05:51;;;;;;;17.67;5.15;;;9.00;99.90;;;;;;5039049;28;20029;-50
2021/12/17 11:08:30;;;;;;;10.07;4.38;;;9.00;99.90;;;;;;5043403;28;20021;-49
2021/12/17 11:11:08;;;;;;;7.63;3.67;;;9.00;99.90;;;;;;5043284;28;20335;-50
2021/12/17 11:13:35;;;;;;;7.53;4.18;;;9.00;99.90;;;;;;5044160;28;20026;-49
2021/12/17 11:16:02;;;;;;;7.97;4.43;;;9.00;99.90;;;;;;5036416;28;20049;-50
2021/12/17 11:18:28;;;;;;;7.97;4.38;;;9.10;99.90;;;;;;5042479;28;20026;-50
2021/12/17 11:20:56;;;;;;;7.90;3.72;;;9.00;99.90;;;;;;5045555;28;20028;-50
2021/12/17 11:23:23;;;;;;;7.65;3.97;;;9.10;99.90;;;;;;5042197;28;20032;-49
2021/12/17 11:25:53;;;;;;;9.43;5.13;;;9.00;99.90;;;;;;5038109;28;20494;-49
2021/12/17 11:28:21;;;;;;;9.73;4.75;;;9.00;99.90;;;;;;5044027;28;20419;-49
2021/12/17 11:30:49;;;;;;;9.05;4.97;;;9.10;99.90;;;;;;5034712;28;20033;-50
2021/12/17 11:33:14;;;;;;;6.13;3.45;;;9.10;99.90;;;;;;5030828;28;20029;-50
2021/12/17 11:35:42;;;;;;;6.47;3.30;;;9.10;99.90;;;;;;5037613;28;20102;-50
2021/12/17 11:38:11;;;;;;;4.18;2.38;;;9.20;99.90;;;;;;5026666;28;20049;-49
2021/12/17 11:40:54;;;;;;;7.72;4.07;;;9.20;99.90;;;;;;5035291;28;20037;-50
2021/12/17 11:43:29;;;;;;;9.75;4.82;;;9.10;99.90;;;;;;5033962;28;20589;-50
2021/12/17 11:46:04;;;;;;;13.55;5.20;;;9.10;99.90;;;;;;5039749;28;20037;-50
2021/12/17 11:48:31;;;;;;;9.30;4.18;;;9.10;99.90;;;;;;5040224;28;20310;-50
2021/12/17 11:51:13;;;;;;;11.55;5.43;;;9.10;99.90;;;;;;5032898;28;20037;-50
2021/12/17 11:53:58;;;;;;;10.82;5.15;;;9.10;99.90;;;;;;5037261;28;20478;-50
2021/12/17 11:56:43;;;;;;;12.07;6.00;;;9.10;99.90;;;;;;5037131;28;20048;-50
2021/12/17 11:59:32;;;;;;;10.40;4.88;;;9.10;99.90;;;;;;5024355;28;20045;-50
2021/12/17 12:02:19;;;;;;;10.90;5.10;;;9.20;99.90;;;;;;5037481;28;20030;-49
2021/12/17 12:04:48;;;;;;;13.30;5.15;;;9.20;99.90;;;;;;5036073;28;20076;-50
2021/12/17 12:07:23;;;;;;;16.98;6.35;;;9.20;99.90;;;;;;5040190;28;20030;-50
2021/12/17 12:09:55;;;;;;;10.90;5.85;;;9.20;99.90;;;;;;5027558;28;20017;-50
2021/12/17 12:12:21;;;;;;;11.55;5.30;;;9.20;99.90;;;;;;5042251;28;20056;-49
2021/12/17 12:14:46;;;;;;;12.45;5.82;;;9.30;99.90;;;;;;5041475;28;20522;-50
2021/12/17 12:17:12;;;;;;;11.85;5.32;;;9.30;99.90;;;;;;5022619;28;20029;-50
2021/12/17 12:19:49;;;;;;;11.30;5.75;;;9.20;99.90;;;;;;5039132;28;20052;-50
2021/12/17 12:22:28;;;;;;;11.93;5.85;;;9.30;99.90;;;;;;5029556;28;20052;-50
2021/12/17 12:25:28;;;;;;;9.27;4.75;;;9.30;99.90;;;;;;5037442;28;20402;-50
2021/12/17 12:27:53;;;;;;;9.27;5.65;;;9.30;99.90;;;;;;5033089;28;20033;-49
2021/12/17 12:30:36;;;;;;;12.23;5.47;;;9.30;99.90;;;;;;5035014;28;20033;-49
2021/12/17 12:33:06;;;;;;;12.13;5.03;;;9.30;99.90;;;;;;5044388;28;20051;-49
2021/12/17 12:35:33;;;;;;;9.88;4.93;;;9.30;99.90;;;;;;5035325;28;20042;-50
2021/12/17 12:38:22;;;;;;;8.85;5.60;;;9.20;99.90;;;;;;5042937;28;20028;-50
2021/12/17 12:40:54;;;;;;;11.45;5.88;;;9.20;99.90;;;;;;5042941;28;20061;-50
2021/12/17 12:43:35;;;;;;;10.35;5.25;;;9.30;99.90;;;;;;5042245;28;20356;-50
2021/12/17 12:46:00;;;;;;;7.63;4.50;;;9.20;99.90;;;;;;5031002;28;20328;-50
2021/12/17 12:48:41;;;;;;;9.55;5.13;;;9.30;99.90;;;;;;5034542;28;20383;-50
2021/12/17 12:51:25;;;;;;;11.40;5.10;;;9.30;99.90;;;;;;5024620;28;20080;-50
2021/12/17 12:54:08;;;;;;;14.95;5.78;;;9.30;99.90;;;;;;5040185;28;20033;-49
2021/12/17 12:56:38;;;;;;;10.32;5.68;;;9.30;99.90;;;;;;5034459;28;20033;-50
2021/12/17 12:59:06;;;;;;;13.30;6.18;;;9.30;99.90;;;;;;5039357;28;20025;-50
2021/12/17 13:01:32;;;;;;;15.65;5.25;;;9.30;99.90;;;;;;5028085;28;20025;-50
2021/12/17 13:03:58;;;;;;;11.52;5.45;;;9.20;99.90;;;;;;5036282;28;20029;-50
2021/12/17 13:06:25;;;;;;;10.23;4.68;;;9.30;99.90;;;;;;5032118;28;20033;-50
2021/12/17 13:08:55;;;;;;;16.45;6.97;;;9.20;99.90;;;;;;5038844;28;20033;-50
2021/12/17 13:11:21;;;;;;;14.15;6.18;;;9.30;99.90;;;;;;5042603;28;20028;-49
2021/12/17 13:13:56;;;;;;;14.93;6.00;;;9.30;99.90;;;;;;5025418;28;20036;-50
2021/12/17 13:21:46;;;;;;;17.58;6.75;;;9.30;99.90;;;;;;5038727;28;20043;-49
2021/12/17 13:24:15;;;;;;;12.52;6.80;;;9.30;99.90;;;;;;5040396;28;20036;-49
2021/12/17 13:26:46;;;;;;;11.75;6.22;;;9.30;99.90;;;;;;5035859;28;20430;-49
2021/12/17 13:29:20;;;;;;;11.85;6.00;;;9.30;99.90;;;;;;5041259;28;20040;-49
2021/12/17 13:32:05;;;;;;;12.02;5.85;;;9.30;99.90;;;;;;5035277;28;20029;-50
2021/12/17 13:34:40;;;;;;;14.25;6.35;;;9.30;99.90;;;;;;5033631;28;20039;-49
2021/12/17 13:37:11;;;;;;;14.30;5.97;;;9.30;99.90;;;;;;5039227;28;20022;-49
2021/12/17 13:39:54;;;;;;;13.23;6.38;;;9.30;99.90;;;;;;5042110;28;20473;-49
2021/12/17 13:42:24;;;;;;;16.90;7.10;;;9.30;99.90;;;;;;5038360;28;20083;-50
2021/12/17 13:44:52;;;;;;;15.20;7.05;;;9.30;99.90;;;;;;5036392;28;20029;-49
2021/12/17 13:47:19;;;;;;;11.00;5.50;;;9.20;99.90;;;;;;5035463;28;20095;-49
2021/12/17 13:49:53;;;;;;;19.23;6.75;;;9.30;99.90;;;;;;5031020;28;20037;-49
2021/12/17 13:52:22;;;;;;;11.98;6.15;;;9.30;99.90;;;;;;5034374;28;20025;-49
2021/12/17 13:54:49;;;;;;;16.05;6.95;;;9.30;99.90;;;;;;5040357;28;20359;-49
2021/12/17 13:57:21;;;;;;;14.63;5.75;;;9.30;99.90;;;;;;5036060;28;20410;-49
2021/12/17 13:59:47;;;;;;;11.05;5.97;;;9.20;99.90;;;;;;5037591;28;20510;-49
2021/12/17 14:02:15;;;;;;;15.43;5.88;;;9.20;99.90;;;;;;5034421;28;20095;-49
2021/12/17 14:04:42;;;;;;;11.10;4.57;;;9.20;99.90;;;;;;5033218;28;20030;-49
2021/12/17 14:07:10;;;;;;;14.82;5.90;;;9.20;99.90;;;;;;5041061;28;20033;-49
2021/12/17 14:09:36;;;;;;;15.70;5.72;;;9.30;99.90;;;;;;5040875;28;20060;-49
2021/12/17 14:12:31;;;;;;;12.88;5.68;;;9.20;99.90;;;;;;5035640;28;20419;-49
2021/12/17 14:14:59;;;;;;;13.48;5.88;;;9.20;99.90;;;;;;5040587;28;20139;-49
2021/12/17 14:17:31;;;;;;;11.68;5.28;;;9.20;99.90;;;;;;5036696;28;20465;-49
2021/12/17 14:20:04;;;;;;;13.07;5.65;;;9.20;99.90;;;;;;5036761;28;20109;-49
2021/12/17 14:22:34;;;;;;;12.48;5.95;;;9.20;99.90;;;;;;5035047;28;20034;-50
2021/12/17 14:25:20;;;;;;;10.90;5.32;;;9.20;99.90;;;;;;5041646;28;20069;-49
2021/12/17 14:27:47;;;;;;;12.95;5.95;;;9.20;99.90;;;;;;5040379;28;20075;-49
2021/12/17 14:30:13;;;;;;;13.95;6.13;;;9.20;99.90;;;;;;5039069;28;20038;-49
2021/12/17 14:32:43;;;;;;;11.60;5.97;;;9.20;99.90;;;;;;5030269;28;20450;-50
2021/12/17 14:35:09;;;;;;;;;;;9.20;99.90;;;;;;5041014;28;20083;-49
2021/12/17 14:37:55;;;;;;;15.77;6.25;;;9.20;99.90;;;;;;5040694;28;19905;-49
2021/12/17 14:40:38;;;;;;;9.75;5.13;;;9.20;99.90;;;;;;5036058;28;20026;-49
2021/12/17 14:43:23;;;;;;;11.10;5.40;;;9.20;99.90;;;;;;5031485;28;20026;-49
2021/12/17 14:48:42;;;;;;;8.35;4.95;;;9.20;99.90;;;;;;5032801;28;20438;-49
2021/12/17 15:04:36;;;;;;;12.48;5.43;;;9.20;99.90;;;;;;5038483;28;20135;-49
2021/12/17 15:07:02;;;;;;;13.07;6.07;;;9.20;99.90;;;;;;5038994;28;20088;-49
2021/12/17 15:09:32;;;;;;;16.80;6.28;;;9.20;99.90;;;;;;5039327;28;20029;-49
2021/12/17 15:12:00;;;;;;;9.32;5.18;;;9.20;99.90;;;;;;5029970;28;20082;-49
2021/12/17 15:14:25;;;;;;;11.45;5.28;;;9.20;99.90;;;;;;5026525;28;20044;-49
2021/12/17 15:16:55;;;;;;;9.18;5.55;;;9.20;99.90;;;;;;5030244;28;20029;-49
2021/12/17 15:19:21;;;;;;;10.93;5.13;;;9.20;99.90;;;;;;5019049;28;20034;-49
2021/12/17 15:21:46;;;;;;;9.95;5.38;;;9.20;99.90;;;;;;5022316;28;20682;-49
2021/12/17 15:24:12;;;;;;;10.00;5.30;;;9.20;99.90;;;;;;5028750;28;20036;-49
2021/12/17 15:26:38;;;;;;;10.57;5.43;;;9.20;99.90;;;;;;5025376;28;20018;-49
2021/12/17 15:29:04;;;;;;;9.20;5.53;;;9.20;99.90;;;;;;5023293;28;20033;-49
2021/12/17 15:31:29;;;;;;;10.48;4.78;;;9.20;99.90;;;;;;5024482;28;20045;-49
2021/12/17 15:33:55;;;;;;;7.88;4.28;;;9.20;99.90;;;;;;5026125;28;20447;-49
2021/12/17 15:36:20;;;;;;;9.18;4.50;;;9.20;99.90;;;;;;5025387;28;20033;-49
2021/12/17 15:38:46;;;;;;;9.95;4.53;;;9.20;99.90;;;;;;5021865;28;20395;-49
2021/12/17 15:41:12;;;;;;;11.10;5.32;;;9.20;99.90;;;;;;5023271;28;20037;-49
2021/12/17 15:43:37;;;;;;;9.93;5.63;;;9.20;99.90;;;;;;5022665;28;20255;-49
2021/12/17 15:46:03;;;;;;;11.48;5.63;;;9.20;99.90;;;;;;5022716;28;20343;-49
2021/12/17 15:48:28;;;;;;;10.45;5.45;;;9.20;99.90;;;;;;5020326;28;20021;-49
2021/12/17 15:50:54;;;;;;;9.93;5.10;;;9.20;99.90;;;;;;5023602;28;20036;-49
2021/12/17 15:53:20;;;;;;;11.88;5.38;;;9.20;99.90;;;;;;5025648;28;20453;-49